Time;durP1;ratioP1;P1;durP2;ratioP2;P2;SDS_P1;SDS_P2;PMS_P1;PMS_P2;Temp;Humidity;BMP_temperature;BMP_pressure;BME280_temperature;BME280_humidity;BME280_pressure;Samples;Min_cycle;Max_cycle;Signal;HPM_P1;HPM_P2
2021/06/01 00:01:15;;;;;;;3.17;1.77;;;;;;;11.98;60.67;101363.41;5055197;28;20224;-77
2021/06/01 00:03:41;;;;;;;3.30;2.10;;;;;;;11.96;60.87;101360.81;5055426;28;20209;-77
2021/06/01 00:06:07;;;;;;;2.30;1.87;;;;;;;11.97;60.67;101359.88;5053363;28;20656;-77
2021/06/01 00:08:33;;;;;;;2.00;1.80;;;;;;;11.97;60.85;101357.19;5050696;28;20644;-77
2021/06/01 00:11:00;;;;;;;1.87;1.77;;;;;;;11.98;61.13;101358.06;5056361;28;20204;-77
2021/06/01 00:13:27;;;;;;;3.23;2.17;;;;;;;11.99;60.90;101365.13;5076387;22;20220;-65
2021/06/01 00:15:53;;;;;;;2.43;1.60;;;;;;;11.98;60.96;101366.06;5072042;28;20225;-65
2021/06/01 00:18:19;;;;;;;2.80;1.80;;;;;;;11.97;60.72;101361.69;5072336;28;20207;-65
2021/06/01 00:20:45;;;;;;;2.40;1.70;;;;;;;11.96;60.71;101362.63;5071470;28;20211;-62
2021/06/01 00:23:11;;;;;;;3.60;2.00;;;;;;;11.92;60.91;101358.41;5060530;28;20225;-63
2021/06/01 00:25:37;;;;;;;2.67;1.80;;;;;;;11.91;60.97;101359.34;5066444;28;20213;-65
2021/06/01 00:28:04;;;;;;;2.40;1.80;;;;;;;11.84;60.71;101353.50;5093771;22;20395;-67
2021/06/01 00:30:31;;;;;;;2.07;1.70;;;;;;;11.75;60.50;101352.19;5071156;28;20200;-67
2021/06/01 00:32:57;;;;;;;2.20;1.67;;;;;;;11.69;60.61;101359.66;5071224;28;20405;-67
2021/06/01 00:35:24;;;;;;;4.07;2.00;;;;;;;11.63;60.99;101355.56;5068463;28;20256;-67
2021/06/01 00:37:50;;;;;;;3.93;1.60;;;;;;;11.62;61.35;101358.31;5059839;28;20220;-66
2021/06/01 00:40:16;;;;;;;2.20;1.97;;;;;;;11.61;61.64;101356.59;5042049;28;20691;-67
2021/06/01 00:42:42;;;;;;;1.97;1.70;;;;;;;11.60;61.55;101355.72;5048698;28;20213;-67
2021/06/01 00:45:09;;;;;;;2.40;2.10;;;;;;;11.58;61.65;101354.09;5045715;28;20202;-67
2021/06/01 00:47:37;;;;;;;3.03;2.00;;;;;;;11.56;61.59;101359.50;5045694;28;20235;-67
2021/06/01 00:50:04;;;;;;;2.43;1.80;;;;;;;11.56;61.77;101347.97;5046732;28;20209;-67
2021/06/01 00:52:30;;;;;;;2.60;1.87;;;;;;;11.55;62.08;101351.59;5052001;28;20205;-67
2021/06/01 00:54:56;;;;;;;2.50;1.57;;;;;;;11.51;61.69;101348.22;5047627;28;20203;-67
2021/06/01 00:57:22;;;;;;;2.57;1.80;;;;;;;11.43;61.66;101347.81;5046278;28;20223;-67
2021/06/01 00:59:48;;;;;;;1.73;1.57;;;;;;;11.35;61.50;101353.56;5043435;28;20212;-67
2021/06/01 01:02:14;;;;;;;2.00;1.80;;;;;;;11.27;61.45;101353.16;5050838;28;20209;-67
2021/06/01 01:04:42;;;;;;;4.23;2.00;;;;;;;11.19;61.59;101350.03;5051451;28;20215;-67
2021/06/01 01:07:16;;;;;;;2.50;2.00;;;;;;;11.11;61.85;101347.75;5050934;28;20642;-67
2021/06/01 01:09:44;;;;;;;1.80;1.70;;;;;;;11.02;62.46;101350.09;5049722;28;20667;-66
2021/06/01 01:12:18;;;;;;;2.03;1.77;;;;;;;10.92;61.99;101346.19;5050435;28;20340;-66
2021/06/01 01:14:48;;;;;;;3.40;1.77;;;;;;;10.84;62.28;101354.59;5051534;28;20228;-67
2021/06/01 01:17:18;;;;;;;1.97;1.70;;;;;;;10.76;62.59;101352.31;5050762;28;20222;-67
2021/06/01 01:20:00;;;;;;;4.07;2.47;;;;;;;10.72;62.69;101349.94;5050926;28;20228;-67
2021/06/01 01:22:28;;;;;;;2.30;2.00;;;;;;;10.71;63.53;101356.19;5047510;28;20201;-66
2021/06/01 01:25:02;;;;;;;2.20;2.00;;;;;;;10.68;63.63;101348.34;5051040;28;20693;-67
2021/06/01 01:27:46;;;;;;;2.43;1.83;;;;;;;10.67;63.86;101343.97;5049948;28;20225;-67
2021/06/01 01:30:16;;;;;;;2.33;1.90;;;;;;;10.65;63.91;101344.03;5039591;28;20690;-67
2021/06/01 01:32:51;;;;;;;2.20;2.00;;;;;;;10.66;63.97;101339.59;5049081;28;20209;-66
2021/06/01 01:35:19;;;;;;;2.67;2.10;;;;;;;10.64;63.77;101344.13;5040547;28;20197;-67
2021/06/01 01:37:47;;;;;;;1.87;1.60;;;;;;;10.57;64.06;101346.25;5048329;28;20279;-67
2021/06/01 01:40:14;;;;;;;2.53;2.10;;;;;;;10.53;63.64;101349.16;5050356;28;20205;-67
2021/06/01 01:42:48;;;;;;;3.13;1.80;;;;;;;10.50;64.08;101347.53;5050543;28;20201;-67
2021/06/01 01:45:19;;;;;;;3.27;2.43;;;;;;;10.50;64.76;101351.97;5049331;28;20204;-67
2021/06/01 01:50:36;;;;;;;2.87;2.00;;;;;;;10.48;64.60;101352.06;5047221;28;20620;-67
2021/06/01 01:53:03;;;;;;;2.60;2.17;;;;;;;10.46;64.16;101348.59;5050476;28;20205;-67
2021/06/01 01:55:29;;;;;;;3.57;2.33;;;;;;;10.43;63.94;101356.75;5048614;28;20202;-67
2021/06/01 01:57:55;;;;;;;2.63;2.17;;;;;;;10.38;64.53;101348.16;5050441;28;20591;-67
2021/06/01 02:00:22;;;;;;;3.20;2.03;;;;;;;10.31;64.14;101350.25;5049442;28;20216;-67
2021/06/01 02:02:48;;;;;;;5.07;2.37;;;;;;;10.23;64.24;101347.13;5050032;28;20201;-67
2021/06/01 02:05:15;;;;;;;4.53;2.03;;;;;;;10.17;64.82;101347.41;5049653;28;20205;-67
2021/06/01 02:07:43;;;;;;;2.30;1.87;;;;;;;10.15;64.48;101349.28;5050439;28;20234;-67
2021/06/01 02:10:10;;;;;;;3.23;1.80;;;;;;;10.15;64.93;101351.94;5049874;28;20254;-66
2021/06/01 02:12:36;;;;;;;2.93;2.13;;;;;;;10.17;64.92;101338.56;5050096;28;20476;-67
2021/06/01 02:15:04;;;;;;;2.73;2.07;;;;;;;10.17;65.45;101339.44;5049995;28;20207;-67
2021/06/01 02:17:30;;;;;;;2.87;2.03;;;;;;;10.16;65.03;101340.38;5048853;28;20707;-67
2021/06/01 02:19:56;;;;;;;2.70;2.00;;;;;;;10.17;65.43;101342.09;5050016;28;20206;-67
2021/06/01 02:23:46;;;;;;;2.03;1.70;;;;;;;10.17;64.61;101335.91;5049251;28;20205;-67
2021/06/01 02:25:30;;;;;;;2.73;1.90;;;;;;;10.17;64.76;101336.75;5049094;28;20236;-67
2021/06/01 02:27:59;;;;;;;1.83;1.73;;;;;;;10.15;65.06;101329.78;5049961;28;20232;-67
2021/06/01 02:30:30;;;;;;;2.50;2.10;;;;;;;10.12;65.06;101327.28;5049316;28;20254;-67
2021/06/01 02:32:58;;;;;;;3.20;2.23;;;;;;;10.06;64.82;101333.75;5045748;28;20197;-67
2021/06/01 02:35:29;;;;;;;2.77;2.17;;;;;;;9.95;64.87;101325.47;5042782;28;20210;-67
2021/06/01 02:37:59;;;;;;;2.73;1.93;;;;;;;9.87;64.53;101324.97;5048318;28;20636;-67
2021/06/01 02:40:28;;;;;;;2.77;2.37;;;;;;;9.82;65.37;101325.22;5046770;28;20636;-67
2021/06/01 02:42:54;;;;;;;3.33;2.77;;;;;;;9.80;65.89;101319.13;5049338;28;20237;-67
2021/06/01 02:45:23;;;;;;;3.43;2.47;;;;;;;9.76;65.71;101320.19;5046398;28;20197;-67
2021/06/01 02:47:50;;;;;;;3.90;3.10;;;;;;;9.70;65.93;101320.50;5049664;28;20225;-67
2021/06/01 02:50:18;;;;;;;3.30;2.67;;;;;;;9.59;66.04;101322.81;5048271;28;20232;-66
2021/06/01 02:52:45;;;;;;;4.33;2.77;;;;;;;9.51;66.19;101331.16;5049341;28;20263;-66
2021/06/01 02:55:14;;;;;;;3.80;2.70;;;;;;;9.45;66.87;101323.50;5047792;28;20202;-66
2021/06/01 02:57:41;;;;;;;2.90;2.40;;;;;;;9.45;66.64;101323.50;5046970;28;20229;-66
2021/06/01 03:00:12;;;;;;;2.97;2.43;;;;;;;9.45;66.81;101322.63;5052495;28;20255;-67
2021/06/01 03:02:38;;;;;;;3.63;2.60;;;;;;;9.43;66.84;101312.06;5051206;28;20213;-66
2021/06/01 03:05:05;;;;;;;3.87;2.20;;;;;;;9.43;66.89;101314.72;5053504;28;20363;-66
2021/06/01 03:07:31;;;;;;;3.10;2.30;;;;;;;9.43;67.57;101309.41;5046021;28;20233;-66
2021/06/01 03:09:57;;;;;;;3.57;2.57;;;;;;;9.44;67.01;101312.94;5046534;28;20562;-66
2021/06/01 03:12:35;;;;;;;3.13;2.13;;;;;;;9.44;67.37;101311.13;5047903;28;20209;-66
2021/06/01 03:15:04;;;;;;;3.70;2.50;;;;;;;9.44;67.53;101303.16;5053370;28;20688;-67
2021/06/01 03:17:30;;;;;;;2.63;2.40;;;;;;;9.44;67.72;101311.13;5052876;28;20221;-66
2021/06/01 03:19:56;;;;;;;3.50;2.57;;;;;;;9.40;67.04;101302.44;5047640;28;20205;-67
2021/06/01 03:22:22;;;;;;;3.93;2.63;;;;;;;9.40;66.97;101301.56;5052454;28;20296;-67
2021/06/01 03:24:48;;;;;;;2.93;2.50;;;;;;;9.39;66.87;101305.16;5045189;28;20209;-66
2021/06/01 03:27:14;;;;;;;2.80;2.50;;;;;;;9.39;67.34;101306.03;5051613;28;20233;-66
2021/06/01 03:29:41;;;;;;;2.87;2.57;;;;;;;9.41;67.83;101308.63;5052379;28;20205;-66
2021/06/01 03:32:09;;;;;;;3.00;2.60;;;;;;;9.40;67.65;101304.25;5050121;28;20202;-67
2021/06/01 03:34:35;;;;;;;4.73;3.10;;;;;;;9.38;67.49;101303.44;5051542;28;20212;-66
2021/06/01 03:37:01;;;;;;;3.00;2.67;;;;;;;9.35;67.66;101300.94;5046965;28;20220;-67
2021/06/01 03:39:28;;;;;;;3.30;3.00;;;;;;;9.27;67.15;101305.75;5053149;28;20208;-66
2021/06/01 03:41:54;;;;;;;3.90;3.03;;;;;;;9.17;66.91;101307.13;5052167;28;20275;-66
2021/06/01 03:44:20;;;;;;;3.80;2.73;;;;;;;9.08;67.13;101304.91;5052919;28;20209;-66
2021/06/01 03:46:46;;;;;;;3.40;2.50;;;;;;;8.99;67.17;101307.03;5052410;28;20221;-66
2021/06/01 03:49:14;;;;;;;3.73;2.87;;;;;;;8.96;68.56;101301.00;5053243;28;20247;-67
2021/06/01 03:51:40;;;;;;;3.50;2.77;;;;;;;8.95;68.32;101302.81;5050226;28;20205;-66
2021/06/01 03:54:06;;;;;;;4.77;2.80;;;;;;;8.97;68.52;101302.72;5053156;28;20205;-66
2021/06/01 03:56:34;;;;;;;4.10;2.77;;;;;;;8.97;68.96;101303.59;5052371;28;20216;-65
2021/06/01 03:59:00;;;;;;;4.37;2.60;;;;;;;9.00;68.67;101299.94;5052796;28;20200;-66
2021/06/01 04:01:26;;;;;;;3.23;2.47;;;;;;;9.04;69.80;101301.53;5052958;28;20284;-67
2021/06/01 04:03:52;;;;;;;4.20;2.83;;;;;;;9.07;69.33;101305.84;5051760;28;20206;-66
2021/06/01 04:06:19;;;;;;;4.60;2.60;;;;;;;9.10;69.83;101295.94;5052912;28;20295;-66
2021/06/01 04:08:45;;;;;;;6.27;3.07;;;;;;;9.15;69.23;101303.66;5051004;28;22650;-66
2021/06/01 04:11:11;;;;;;;3.30;2.70;;;;;;;9.17;69.84;101299.16;5052574;28;20206;-66
2021/06/01 04:13:37;;;;;;;3.60;3.07;;;;;;;9.20;69.86;101299.88;5046741;28;20213;-66
2021/06/01 04:16:04;;;;;;;3.77;2.73;;;;;;;9.23;70.22;101301.53;5046612;28;20213;-66
2021/06/01 04:18:30;;;;;;;4.37;2.53;;;;;;;9.26;69.86;101299.59;5052383;28;20217;-66
2021/06/01 04:20:56;;;;;;;3.83;3.30;;;;;;;9.26;69.38;101299.59;5052920;28;20198;-66
2021/06/01 04:23:23;;;;;;;5.30;3.00;;;;;;;9.27;69.46;101303.09;5052320;28;20258;-67
2021/06/01 04:25:49;;;;;;;3.97;3.17;;;;;;;9.28;70.01;101303.03;5045017;28;20206;-66
2021/06/01 04:28:15;;;;;;;3.13;2.60;;;;;;;9.31;70.13;101304.69;5049120;28;20232;-66
2021/06/01 04:30:44;;;;;;;5.73;2.60;;;;;;;9.34;69.91;101301.88;5041531;28;20679;-66
2021/06/01 04:33:11;;;;;;;4.07;2.73;;;;;;;9.37;69.58;101304.38;5050853;28;20223;-66
2021/06/01 04:35:37;;;;;;;3.57;2.60;;;;;;;9.37;69.62;101307.91;5049082;28;20671;-66
2021/06/01 04:38:03;;;;;;;3.33;2.80;;;;;;;9.40;70.47;101296.25;5048971;28;20225;-66
2021/06/01 04:40:31;;;;;;;3.70;2.83;;;;;;;9.44;70.19;101296.97;5050330;28;20198;-66
2021/06/01 04:42:57;;;;;;;3.57;2.60;;;;;;;9.46;70.37;101301.28;5050493;28;20263;-66
2021/06/01 04:45:23;;;;;;;4.30;2.90;;;;;;;9.49;69.62;101298.50;5049406;28;20209;-66
2021/06/01 04:47:49;;;;;;;4.77;2.80;;;;;;;9.54;70.71;101299.09;5042492;28;20240;-67
2021/06/01 04:50:16;;;;;;;3.03;2.80;;;;;;;9.59;70.51;101299.75;5040652;28;20210;-66
2021/06/01 04:52:42;;;;;;;3.17;2.87;;;;;;;9.66;70.91;101300.31;5037200;28;20210;-66
2021/06/01 04:55:10;;;;;;;4.10;2.63;;;;;;;9.71;70.49;101301.81;5033660;28;20830;-66
2021/06/01 04:57:37;;;;;;;3.20;2.70;;;;;;;9.79;70.20;101298.78;5037526;28;20256;-66
2021/06/01 05:00:05;;;;;;;3.93;2.80;;;;;;;9.87;70.69;101301.03;5036055;28;20634;-66
2021/06/01 05:02:31;;;;;;;4.03;2.83;;;;;;;9.96;70.67;101298.78;5036188;28;20221;-66
2021/06/01 05:04:57;;;;;;;4.53;2.80;;;;;;;10.04;70.72;101301.91;5042111;28;20209;-66
2021/06/01 05:07:23;;;;;;;3.30;2.70;;;;;;;10.15;71.55;101306.69;5040548;28;20321;-66
2021/06/01 05:09:49;;;;;;;4.90;3.07;;;;;;;10.26;71.30;101300.84;5043280;28;20573;-67
2021/06/01 05:12:15;;;;;;;5.40;3.30;;;;;;;10.37;71.96;101302.03;5040426;28;20698;-66
2021/06/01 05:14:43;;;;;;;6.07;2.90;;;;;;;10.49;71.83;101302.31;5040100;28;20212;-66
2021/06/01 05:17:09;;;;;;;7.33;3.43;;;;;;;10.62;72.62;101295.41;5039842;28;20588;-67
2021/06/01 05:19:35;;;;;;;6.70;3.10;;;;;;;10.73;73.00;101299.22;5037557;28;20309;-66
2021/06/01 05:22:01;;;;;;;4.30;3.07;;;;;;;10.89;72.80;101295.72;5041547;28;20213;-67
2021/06/01 05:24:27;;;;;;;4.53;3.30;;;;;;;11.01;72.78;101298.56;5040189;28;20234;-66
2021/06/01 05:26:53;;;;;;;3.17;2.60;;;;;;;11.16;72.74;101299.53;5040062;28;20245;-65
2021/06/01 05:29:19;;;;;;;4.97;2.63;;;;;;;11.27;72.49;101297.16;5040730;28;20301;-66
2021/06/01 05:31:50;;;;;;;3.20;2.27;;;;;;;11.38;71.68;101305.41;5042313;28;20216;-65
2021/06/01 05:34:18;;;;;;;5.93;2.73;;;;;;;11.48;71.09;101298.59;5044549;28;20683;-67
2021/06/01 05:36:44;;;;;;;5.67;3.10;;;;;;;11.61;70.96;101298.75;5038886;28;20225;-66
2021/06/01 05:39:13;;;;;;;3.37;2.23;;;;;;;11.78;70.88;101303.16;5041033;28;20203;-66
2021/06/01 05:41:39;;;;;;;4.50;3.07;;;;;;;11.94;70.00;101303.97;5042103;28;20260;-66
2021/06/01 05:44:06;;;;;;;3.37;2.70;;;;;;;12.11;69.83;101309.19;5038009;28;20481;-67
2021/06/01 05:46:33;;;;;;;4.33;2.90;;;;;;;12.29;69.41;101301.88;5036321;28;20216;-66
2021/06/01 05:49:00;;;;;;;3.27;2.87;;;;;;;12.48;69.07;101301.63;5040395;28;20251;-66
2021/06/01 05:51:32;;;;;;;4.47;3.07;;;;;;;12.64;68.46;101301.56;5032656;28;20210;-66
2021/06/01 05:53:58;;;;;;;5.57;2.70;;;;;;;12.83;68.20;101294.97;5037344;28;20204;-66
2021/06/01 05:56:24;;;;;;;3.83;2.90;;;;;;;13.03;67.45;101300.88;5035407;28;20209;-66
2021/06/01 05:58:50;;;;;;;4.03;2.83;;;;;;;13.22;66.66;101300.63;5034954;28;20198;-68
2021/06/01 06:01:16;;;;;;;3.87;2.70;;;;;;;13.43;66.54;101305.44;5033184;28;20584;-67
2021/06/01 06:03:42;;;;;;;4.43;2.60;;;;;;;13.64;65.29;101300.47;5035602;28;20205;-67
2021/06/01 06:06:11;;;;;;;3.80;2.73;;;;;;;13.89;64.54;101313.97;5035602;28;20286;-67
2021/06/01 06:08:38;;;;;;;6.03;4.43;;;;;;;14.12;63.46;101304.41;5034986;28;20266;-67
2021/06/01 06:11:04;;;;;;;9.37;5.23;;;;;;;14.32;62.56;101311.09;5033396;28;20210;-67
2021/06/01 06:13:32;;;;;;;4.93;3.30;;;;;;;14.49;61.09;101310.81;5033288;28;20205;-67
2021/06/01 06:15:58;;;;;;;5.07;4.00;;;;;;;14.72;61.45;101311.88;5033209;28;20340;-67
2021/06/01 06:18:28;;;;;;;5.80;3.70;;;;;;;14.94;60.12;101316.59;5035439;28;20221;-67
2021/06/01 06:20:59;;;;;;;5.20;4.20;;;;;;;15.16;59.06;101308.72;5036436;28;20257;-67
2021/06/01 06:23:26;;;;;;;7.83;3.90;;;;;;;15.42;59.14;101319.38;5033326;28;20264;-66
2021/06/01 06:25:52;;;;;;;6.83;4.00;;;;;;;15.65;58.05;101318.59;5035482;28;20205;-67
2021/06/01 06:28:18;;;;;;;5.87;4.20;;;;;;;15.86;57.79;101321.53;5058735;22;20229;-63
2021/06/01 06:30:44;;;;;;;6.47;4.67;;;;;;;16.11;57.14;101320.53;5048369;28;20250;-64
2021/06/01 06:33:10;;;;;;;5.73;4.00;;;;;;;16.33;56.23;101315.22;5047079;28;20202;-63
2021/06/01 06:35:36;;;;;;;8.20;4.43;;;;;;;16.52;55.50;101317.34;5048932;28;20617;-64
2021/06/01 06:38:03;;;;;;;8.10;4.03;;;;;;;16.72;55.50;101313.13;5046060;28;20308;-64
2021/06/01 06:40:30;;;;;;;9.07;3.90;;;;;;;16.90;54.91;101312.53;5046727;28;20742;-64
2021/06/01 06:42:57;;;;;;;4.63;3.83;;;;;;;17.07;54.17;101299.56;5047591;28;20211;-63
2021/06/01 06:45:25;;;;;;;6.50;4.07;;;;;;;17.25;54.44;101303.47;5047089;28;20234;-64
2021/06/01 06:48:05;;;;;;;7.23;4.40;;;;;;;17.46;53.84;101306.25;5047530;28;20242;-64
2021/06/01 06:50:33;;;;;;;5.73;3.67;;;;;;;17.69;53.42;101306.13;5046020;28;20227;-64
2021/06/01 06:53:00;;;;;;;6.47;3.90;;;;;;;17.87;53.34;101297.50;5046733;28;20214;-64
2021/06/01 06:55:26;;;;;;;7.47;3.37;;;;;;;18.09;53.21;101305.50;5047952;28;20254;-64
2021/06/01 06:57:54;;;;;;;7.83;3.47;;;;;;;18.27;52.18;101306.59;5048444;28;20228;-64
2021/06/01 07:00:23;;;;;;;9.57;3.57;;;;;;;18.43;51.98;101308.88;5047889;28;20204;-64
2021/06/01 07:02:49;;;;;;;7.67;3.30;;;;;;;18.56;51.20;101303.25;5045402;28;20698;-64
2021/06/01 07:05:18;;;;;;;3.80;2.93;;;;;;;18.69;50.48;101303.94;5047252;28;20208;-64
2021/06/01 07:07:46;;;;;;;6.77;2.70;;;;;;;18.81;50.20;101304.72;5045654;28;20254;-67
2021/06/01 07:10:13;;;;;;;5.47;2.90;;;;;;;18.92;49.76;101293.81;5048536;28;20307;-67
2021/06/01 07:12:42;;;;;;;4.60;2.70;;;;;;;19.06;49.46;101302.41;5048869;28;20217;-66
2021/06/01 07:15:25;;;;;;;8.17;2.90;;;;;;;19.23;48.76;101292.81;5050030;28;20213;-67
2021/06/01 07:17:54;;;;;;;3.83;2.87;;;;;;;19.34;48.00;101289.16;5044418;28;20265;-66
2021/06/01 07:20:21;;;;;;;5.57;3.20;;;;;;;19.45;47.67;101290.88;5049661;28;20253;-67
2021/06/01 07:22:47;;;;;;;6.93;2.93;;;;;;;19.57;47.49;101293.34;5046733;28;20210;-67
2021/06/01 07:25:13;;;;;;;4.50;2.67;;;;;;;19.67;46.50;101286.13;5049152;28;20207;-66
2021/06/01 07:27:39;;;;;;;7.80;3.30;;;;;;;19.82;46.05;101288.41;5048991;28;20356;-66
2021/06/01 07:30:08;;;;;;;5.77;2.97;;;;;;;19.99;45.46;101290.41;5048740;28;20213;-67
2021/06/01 07:32:36;;;;;;;11.50;3.90;;;;;;;20.12;44.00;101293.66;5048997;28;20206;-67
2021/06/01 07:35:02;;;;;;;7.50;3.30;;;;;;;20.21;43.52;101286.56;5048553;28;20200;-67
2021/06/01 07:37:28;;;;;;;7.20;2.97;;;;;;;20.37;44.02;101284.16;5048948;28;20316;-67
2021/06/01 07:39:54;;;;;;;4.83;3.23;;;;;;;20.56;43.72;101288.66;5041912;28;20205;-67
2021/06/01 07:42:20;;;;;;;3.20;2.73;;;;;;;20.72;42.99;101278.94;5045454;28;20612;-67
2021/06/01 07:44:46;;;;;;;4.73;3.07;;;;;;;20.86;42.29;101284.84;5047948;28;20201;-67
2021/06/01 07:47:12;;;;;;;4.37;3.00;;;;;;;20.97;42.13;101276.53;5052633;28;20228;-67
2021/06/01 07:49:39;;;;;;;6.07;3.00;;;;;;;21.09;42.12;101281.63;5053388;28;20226;-67
2021/06/01 07:52:06;;;;;;;4.80;2.60;;;;;;;21.23;41.73;101283.00;5040926;28;20203;-67
2021/06/01 07:54:33;;;;;;;3.33;2.93;;;;;;;21.35;41.28;101279.09;5050893;28;20213;-66
2021/06/01 07:56:59;;;;;;;4.63;2.77;;;;;;;21.53;41.06;101280.97;5053055;28;20214;-67
2021/06/01 07:59:25;;;;;;;4.53;2.80;;;;;;;21.73;41.02;101274.41;5052774;28;20594;-66
2021/06/01 08:01:51;;;;;;;4.83;3.00;;;;;;;21.92;40.57;101279.69;5052274;28;20243;-67
2021/06/01 08:04:18;;;;;;;5.07;2.53;;;;;;;22.08;40.81;101268.16;5053125;28;20206;-67
2021/06/01 08:06:46;;;;;;;3.77;2.80;;;;;;;22.21;40.85;101262.34;5052561;28;20235;-66
2021/06/01 08:09:12;;;;;;;3.30;2.50;;;;;;;22.34;40.95;101254.66;5052667;28;20317;-68
2021/06/01 08:11:38;;;;;;;3.30;2.65;;;;;;;22.39;38.65;101264.00;5052385;28;20206;-67
2021/06/01 08:14:04;;;;;;;3.10;2.28;;;;;;;22.42;37.67;101258.25;5051773;28;20198;-68
2021/06/01 08:16:31;;;;;;;2.35;2.08;;;;;;;22.45;36.18;101259.81;5052420;28;20208;-67
2021/06/01 08:19:03;;;;;;;4.15;2.22;;;;;;;22.47;36.24;101258.63;5052244;28;20893;-67
2021/06/01 08:21:41;;;;;;;4.85;2.75;;;;;;;22.55;37.16;101252.41;5053009;28;20251;-65
2021/06/01 08:24:08;;;;;;;6.53;2.77;;;;;;;22.67;37.35;101251.13;5046158;28;20219;-68
2021/06/01 08:26:35;;;;;;;5.32;3.28;;;;;;;22.77;37.86;101242.88;5052074;28;20210;-67
2021/06/01 08:29:01;;;;;;;4.63;2.80;;;;;;;22.83;38.35;101243.09;5051096;28;20235;-67
2021/06/01 08:31:27;;;;;;;3.05;2.58;;;;;;;22.93;39.03;101242.97;5050500;28;20736;-64
2021/06/01 08:33:53;;;;;;;5.07;3.10;;;;;;;23.06;39.07;101240.66;5051645;28;20231;-65
2021/06/01 08:36:19;;;;;;;5.35;3.30;;;;;;;23.21;38.99;101251.75;5052210;28;20257;-67
2021/06/01 08:38:45;;;;;;;5.55;3.00;;;;;;;23.39;38.70;101246.19;5051823;28;20240;-64
2021/06/01 08:41:16;;;;;;;3.85;3.00;;;;;;;23.60;38.42;101251.22;5050088;28;20851;-63
2021/06/01 08:43:43;;;;;;;4.13;3.22;;;;;;;23.73;37.19;101249.69;5051045;28;20223;-64
2021/06/01 08:46:10;;;;;;;3.00;2.70;;;;;;;23.89;36.66;101244.28;5051919;28;20582;-64
2021/06/01 08:48:36;;;;;;;3.95;3.30;;;;;;;24.03;36.35;101245.47;5050952;28;20263;-64
2021/06/01 08:51:02;;;;;;;4.03;2.90;;;;;;;24.09;35.26;101250.22;5051551;28;20211;-64
2021/06/01 08:53:28;;;;;;;3.65;2.67;;;;;;;24.11;34.75;101240.03;5050308;28;20553;-63
2021/06/01 08:55:55;;;;;;;3.75;3.15;;;;;;;24.22;35.32;101242.38;5051549;28;20295;-64
2021/06/01 08:58:23;;;;;;;6.00;3.08;;;;;;;24.30;34.73;101233.41;5051353;28;20214;-64
2021/06/01 09:00:49;;;;;;;21.65;4.70;;;;;;;24.37;34.64;101231.69;5050908;28;20561;-65
2021/06/01 09:03:18;;;;;;;4.53;3.10;;;;;;;24.43;33.77;101230.16;5050456;28;20205;-65
2021/06/01 09:06:05;;;;;;;3.85;2.80;;;;;;;24.48;33.53;101219.59;5050804;28;20201;-65
2021/06/01 09:08:50;;;;;;;3.30;3.00;;;;;;;24.46;33.73;101214.31;5049849;28;20322;-65
2021/06/01 09:11:28;;;;;;;7.70;3.05;;;;;;;24.45;33.78;101215.34;5050587;28;20224;-66
2021/06/01 09:22:29;;;;;;;5.65;3.03;;;;;;;24.65;33.77;101204.06;5050566;28;20292;-65
2021/06/01 09:25:04;;;;;;;3.00;2.70;;;;;;;24.75;33.95;101201.97;5050816;28;20213;-63
2021/06/01 09:27:32;;;;;;;3.20;2.90;;;;;;;24.83;33.24;101204.69;5045977;28;20606;-65
2021/06/01 09:29:59;;;;;;;3.60;2.65;;;;;;;24.94;34.26;101201.59;5050341;28;20760;-65
2021/06/01 09:32:25;;;;;;;3.60;2.58;;;;;;;24.97;34.11;101205.84;5047160;28;20286;-64
2021/06/01 09:34:54;;;;;;;2.72;2.47;;;;;;;24.97;34.44;101208.56;5050405;28;20205;-65
2021/06/01 09:37:27;;;;;;;3.63;2.47;;;;;;;24.94;33.53;101193.41;5047129;28;20289;-65
2021/06/01 09:40:11;;;;;;;3.00;2.70;;;;;;;24.89;33.91;101198.53;5048997;28;20202;-64
2021/06/01 09:42:40;;;;;;;3.85;2.70;;;;;;;24.90;33.63;101198.31;5047454;28;20323;-64
2021/06/01 09:45:12;;;;;;;4.13;3.00;;;;;;;24.95;33.41;101196.97;5049190;28;20625;-64
2021/06/01 09:47:52;;;;;;;4.80;3.03;;;;;;;24.99;33.69;101201.91;5050572;28;20260;-64
2021/06/01 09:50:33;;;;;;;4.07;3.45;;;;;;;25.07;34.46;101201.03;5049331;28;20215;-64
2021/06/01 09:53:02;;;;;;;3.25;2.75;;;;;;;25.12;33.97;101194.00;5048891;28;20570;-65
2021/06/01 09:55:34;;;;;;;4.97;3.17;;;;;;;25.16;34.30;101186.31;5049556;28;20205;-64
2021/06/01 09:58:02;;;;;;;5.05;3.15;;;;;;;25.23;34.22;101193.63;5049424;28;20224;-64
2021/06/01 10:00:30;;;;;;;4.85;2.78;;;;;;;25.30;34.35;101182.81;5050273;28;20228;-64
2021/06/01 10:03:01;;;;;;;4.50;3.40;;;;;;;25.29;33.61;101185.72;5043183;28;20208;-65
2021/06/01 10:05:29;;;;;;;3.70;2.70;;;;;;;25.27;33.82;101185.91;5049352;28;20232;-64
2021/06/01 10:07:57;;;;;;;2.80;2.60;;;;;;;25.25;33.68;101183.38;5049026;28;20341;-64
2021/06/01 10:10:25;;;;;;;3.45;3.15;;;;;;;25.30;35.02;101182.81;5049241;28;20201;-64
2021/06/01 10:12:53;;;;;;;4.07;3.40;;;;;;;25.34;34.72;101173.25;5048754;28;20327;-64
2021/06/01 10:15:21;;;;;;;3.42;3.10;;;;;;;25.30;34.38;101179.25;5049848;28;20198;-66
2021/06/01 10:17:49;;;;;;;3.13;2.83;;;;;;;25.31;34.73;101176.34;5049758;28;20243;-68
2021/06/01 10:20:18;;;;;;;3.67;2.90;;;;;;;25.32;34.49;101174.47;5050248;28;20211;-68
2021/06/01 10:22:45;;;;;;;3.40;2.90;;;;;;;25.31;33.91;101170.03;5048999;28;20204;-68
2021/06/01 10:25:12;;;;;;;3.30;3.00;;;;;;;25.31;33.60;101173.63;5049787;28;20209;-69
2021/06/01 10:27:38;;;;;;;3.45;3.05;;;;;;;25.32;33.68;101164.41;5049886;28;20247;-68
2021/06/01 10:30:06;;;;;;;3.95;3.40;;;;;;;25.36;33.72;101154.84;5049335;28;20204;-69
2021/06/01 10:32:36;;;;;;;3.88;3.22;;;;;;;25.38;34.25;101158.25;5049660;28;20208;-68
2021/06/01 10:35:08;;;;;;;4.00;3.40;;;;;;;25.40;33.37;101156.19;5044665;28;20202;-68
2021/06/01 10:52:16;;;;;;;5.35;3.55;;;;;;;25.52;33.35;101151.16;5040711;28;20237;-68
2021/06/01 10:55:06;;;;;;;3.60;3.25;;;;;;;25.56;33.12;101149.75;5047585;28;20569;-67
2021/06/01 10:57:58;;;;;;;3.72;3.20;;;;;;;25.69;33.52;101143.72;5040840;28;20233;-68
2021/06/01 11:03:15;;;;;;;3.50;3.20;;;;;;;25.80;33.76;101137.81;5043056;28;20300;-68
2021/06/01 11:06:02;;;;;;;6.03;3.42;;;;;;;25.85;33.02;101124.47;5049840;28;20227;-64
2021/06/01 11:08:43;;;;;;;3.63;3.00;;;;;;;25.90;32.79;101122.03;5046737;28;20692;-63
2021/06/01 11:11:31;;;;;;;4.05;3.20;;;;;;;26.00;33.62;101119.88;5047542;28;20201;-65
2021/06/01 11:13:59;;;;;;;4.10;3.20;;;;;;;26.09;32.77;101118.78;5047216;28;20575;-63
2021/06/01 11:16:25;;;;;;;5.45;3.38;;;;;;;26.16;33.02;101116.97;5047862;28;20569;-65
2021/06/01 11:18:57;;;;;;;5.07;3.38;;;;;;;26.23;33.61;101109.72;5052565;28;20274;-64
2021/06/01 11:21:33;;;;;;;4.47;3.50;;;;;;;26.37;32.74;101104.47;5053671;28;20212;-63
2021/06/01 11:24:21;;;;;;;5.43;3.60;;;;;;;26.42;31.80;101107.50;5051713;28;20338;-65
2021/06/01 11:32:56;;;;;;;4.05;3.65;;;;;;;26.73;32.82;101104.53;5050855;28;20239;-64
2021/06/01 11:35:25;;;;;;;4.68;3.83;;;;;;;26.69;31.87;101106.81;5052153;28;20229;-65
2021/06/01 11:37:58;;;;;;;5.28;3.97;;;;;;;26.60;32.61;101102.50;5050533;28;20230;-65
2021/06/01 11:40:30;;;;;;;8.52;4.40;;;;;;;26.61;32.15;101098.72;5052249;28;20690;-64
2021/06/01 11:43:07;;;;;;;4.20;3.58;;;;;;;26.63;32.56;101105.69;5051484;28;20586;-63
2021/06/01 11:45:46;;;;;;;3.85;3.42;;;;;;;26.68;32.73;101096.09;5050744;28;20200;-65
2021/06/01 11:48:26;;;;;;;4.05;3.10;;;;;;;26.69;33.08;101097.78;5050251;28;20253;-65
2021/06/01 11:51:13;;;;;;;3.50;3.20;;;;;;;26.71;33.01;101096.53;5050723;28;20209;-64
2021/06/01 11:54:02;;;;;;;5.20;3.47;;;;;;;26.70;33.31;101100.28;5051158;28;20201;-64
2021/06/01 11:56:58;;;;;;;5.00;3.72;;;;;;;26.69;32.63;101093.16;5044992;28;20220;-64
2021/06/01 12:02:23;;;;;;;3.47;3.17;;;;;;;26.71;32.28;101098.41;5049664;28;20573;-65
2021/06/01 12:05:10;;;;;;;4.40;3.20;;;;;;;26.59;32.46;101087.13;5051003;28;20735;-64
2021/06/01 12:18:52;;;;;;;4.35;2.65;;;;;;;26.74;31.26;101067.97;5046618;28;20256;-64
2021/06/01 12:21:21;;;;;;;3.63;2.88;;;;;;;26.73;30.98;101063.53;5048001;28;20203;-64
2021/06/01 12:23:51;;;;;;;4.03;3.08;;;;;;;26.68;30.85;101057.84;5050604;28;20210;-63